Time;durP1;ratioP1;P1;durP2;ratioP2;P2;SDS_P1;SDS_P2;PMS_P1;PMS_P2;Temp;Humidity;BMP_temperature;BMP_pressure;BME280_temperature;BME280_humidity;BME280_pressure;Samples;Min_cycle;Max_cycle;Signal;HPM_P1;HPM_P2
2020/12/15 00:00:06;;;;;;;24.92;13.18;;;0.90;99.90;;;;;;5072670;28;20135;-48
2020/12/15 00:02:33;;;;;;;21.10;11.68;;;0.80;99.90;;;;;;5066090;28;20045;-47
2020/12/15 00:05:00;;;;;;;26.02;14.18;;;0.80;99.90;;;;;;5059543;28;20052;-47
2020/12/15 00:07:28;;;;;;;27.58;14.98;;;0.90;99.90;;;;;;5069854;28;20050;-47
2020/12/15 00:09:55;;;;;;;24.95;13.70;;;0.90;99.90;;;;;;5064792;28;20473;-47
2020/12/15 00:12:21;;;;;;;34.88;15.45;;;0.80;99.90;;;;;;5071356;28;20048;-47
2020/12/15 00:14:47;;;;;;;24.42;12.88;;;0.90;99.90;;;;;;5070025;28;20040;-48
2020/12/15 00:17:14;;;;;;;30.60;17.63;;;0.80;99.90;;;;;;5069295;28;20049;-47
2020/12/15 00:19:40;;;;;;;35.72;18.35;;;0.80;99.90;;;;;;5069192;28;20048;-47
2020/12/15 00:22:07;;;;;;;25.13;13.30;;;0.90;99.90;;;;;;5054342;28;20524;-47
2020/12/15 00:24:34;;;;;;;23.15;12.52;;;0.90;99.90;;;;;;5068629;28;20056;-47
2020/12/15 00:27:00;;;;;;;42.53;19.05;;;0.90;99.90;;;;;;5072059;28;20076;-48
2020/12/15 00:29:27;;;;;;;31.17;16.95;;;0.80;99.90;;;;;;5070361;28;20040;-47
2020/12/15 00:31:54;;;;;;;32.47;15.07;;;0.70;99.90;;;;;;5071198;28;20063;-50
2020/12/15 00:34:20;;;;;;;48.80;24.40;;;0.60;99.90;;;;;;5071193;28;20052;-48
2020/12/15 00:36:47;;;;;;;68.05;38.22;;;0.50;99.90;;;;;;5068306;28;20048;-48
2020/12/15 00:39:14;;;;;;;52.05;27.08;;;0.30;99.90;;;;;;5071913;28;20048;-47
2020/12/15 00:41:40;;;;;;;32.28;20.63;;;0.20;99.90;;;;;;5067254;28;20413;-48
2020/12/15 00:44:07;;;;;;;25.85;15.32;;;0.20;99.90;;;;;;5073059;28;20045;-47
2020/12/15 00:46:34;;;;;;;25.08;15.05;;;0.00;99.90;;;;;;5067405;28;20044;-47
2020/12/15 00:49:01;;;;;;;23.23;12.70;;;-0.20;99.90;;;;;;5071073;28;20049;-47
2020/12/15 00:51:28;;;;;;;23.52;13.63;;;-0.30;99.90;;;;;;5068922;28;20132;-47
2020/12/15 00:53:54;;;;;;;24.67;13.88;;;-0.30;99.90;;;;;;5069049;28;20045;-47
2020/12/15 00:56:22;;;;;;;25.88;14.90;;;-0.40;99.90;;;;;;5060252;28;20049;-47
2020/12/15 00:58:48;;;;;;;19.75;12.00;;;-0.40;99.90;;;;;;5061531;28;20127;-48
2020/12/15 01:01:15;;;;;;;21.25;11.85;;;-0.40;99.90;;;;;;5059074;28;20045;-47
2020/12/15 01:03:42;;;;;;;34.83;19.88;;;-0.30;99.90;;;;;;5067735;28;20135;-47
2020/12/15 01:06:09;;;;;;;27.73;15.60;;;-0.30;99.90;;;;;;5065748;28;20131;-48
2020/12/15 01:08:36;;;;;;;30.10;18.20;;;-0.10;99.90;;;;;;5069947;28;20051;-47
2020/12/15 01:11:15;;;;;;;28.10;16.90;;;0.10;99.90;;;;;;5069991;28;20135;-47
2020/12/15 01:13:42;;;;;;;38.67;20.95;;;0.00;99.90;;;;;;5063678;28;20401;-47
2020/12/15 01:16:09;;;;;;;31.08;17.25;;;0.00;99.90;;;;;;5059752;28;20056;-47
2020/12/15 01:18:35;;;;;;;27.45;14.68;;;0.00;99.90;;;;;;5071231;28;20044;-47
2020/12/15 01:21:04;;;;;;;31.55;17.33;;;0.00;99.90;;;;;;5071105;28;20545;-48
2020/12/15 01:23:30;;;;;;;30.05;15.73;;;0.00;99.90;;;;;;5070027;28;20496;-47
2020/12/15 01:25:57;;;;;;;28.80;16.90;;;0.00;99.90;;;;;;5067740;28;20646;-47
2020/12/15 01:28:24;;;;;;;31.45;16.23;;;-0.10;99.90;;;;;;5064314;28;20044;-47
2020/12/15 01:30:50;;;;;;;30.92;17.30;;;-0.20;99.90;;;;;;5068611;28;20048;-47
2020/12/15 01:33:17;;;;;;;31.42;16.92;;;-0.30;99.90;;;;;;5069030;28;20049;-48
2020/12/15 01:35:47;;;;;;;40.60;19.48;;;-0.40;99.90;;;;;;5067945;28;20135;-47
2020/12/15 01:38:14;;;;;;;38.00;20.45;;;-0.50;99.90;;;;;;5069409;28;20055;-47
2020/12/15 01:40:50;;;;;;;46.92;24.95;;;-0.50;99.90;;;;;;5067912;28;20059;-48
2020/12/15 01:43:17;;;;;;;31.60;16.48;;;-0.50;99.90;;;;;;5068301;28;20436;-47
2020/12/15 01:45:44;;;;;;;28.05;13.85;;;-0.60;99.90;;;;;;5056917;28;20106;-47
2020/12/15 01:48:11;;;;;;;18.67;11.52;;;-0.60;99.90;;;;;;5066195;28;20041;-47
2020/12/15 01:50:39;;;;;;;22.00;11.13;;;-0.50;99.90;;;;;;5070938;28;20389;-47
2020/12/15 01:53:12;;;;;;;14.13;9.68;;;-0.50;99.90;;;;;;5069646;28;20497;-47
2020/12/15 01:55:40;;;;;;;23.15;12.20;;;-0.50;99.90;;;;;;5068373;28;20064;-47
2020/12/15 01:58:09;;;;;;;19.20;11.63;;;-0.40;99.90;;;;;;5072664;28;20473;-47
2020/12/15 02:00:36;;;;;;;27.60;14.18;;;-0.40;99.90;;;;;;5067534;28;20083;-47
2020/12/15 02:03:03;;;;;;;21.52;10.75;;;-0.40;99.90;;;;;;5067712;28;20427;-47
2020/12/15 02:05:30;;;;;;;14.60;5.97;;;-0.30;99.90;;;;;;5069761;28;20044;-47
2020/12/15 02:07:57;;;;;;;8.07;2.80;;;-0.30;99.90;;;;;;5069608;28;20049;-47
2020/12/15 02:10:24;;;;;;;8.77;4.50;;;-0.20;99.90;;;;;;5066880;28;20048;-47
2020/12/15 02:12:50;;;;;;;9.20;4.95;;;-0.20;99.90;;;;;;5070229;28;20040;-47
2020/12/15 02:15:17;;;;;;;17.40;8.82;;;-0.10;99.90;;;;;;5067297;28;20079;-47
2020/12/15 02:17:44;;;;;;;14.10;7.05;;;-0.10;99.90;;;;;;5069745;28;20047;-47
2020/12/15 02:20:11;;;;;;;5.60;3.70;;;-0.10;99.90;;;;;;5064173;28;20048;-47
2020/12/15 02:22:37;;;;;;;13.18;7.90;;;-0.10;99.90;;;;;;5062898;28;20135;-47
2020/12/15 02:25:06;;;;;;;13.88;7.57;;;-0.10;99.90;;;;;;5070970;28;20052;-47
2020/12/15 02:27:33;;;;;;;56.70;27.13;;;-0.10;99.90;;;;;;5067418;28;20037;-47
2020/12/15 02:29:59;;;;;;;33.63;17.00;;;-0.10;99.90;;;;;;5071065;28;20048;-47
2020/12/15 02:32:26;;;;;;;15.73;7.70;;;0.00;99.90;;;;;;5067714;28;20051;-47
2020/12/15 02:34:57;;;;;;;12.90;6.40;;;0.00;99.90;;;;;;5075491;28;20098;-47
2020/12/15 02:37:24;;;;;;;22.30;10.80;;;-0.10;99.90;;;;;;5065311;28;20049;-48
2020/12/15 02:39:50;;;;;;;12.90;6.38;;;-0.20;99.90;;;;;;5070237;28;20045;-47
2020/12/15 02:42:17;;;;;;;13.82;7.40;;;-0.40;99.90;;;;;;5066695;28;20044;-47
2020/12/15 02:44:44;;;;;;;15.55;8.30;;;-0.50;99.90;;;;;;5067093;28;20197;-47
2020/12/15 02:47:10;;;;;;;24.20;11.20;;;-0.60;99.90;;;;;;5071538;28;20707;-47
2020/12/15 02:49:37;;;;;;;20.83;11.10;;;-0.70;99.90;;;;;;5073263;28;20048;-47
2020/12/15 02:52:06;;;;;;;20.02;10.68;;;-0.90;99.90;;;;;;5072480;28;20049;-47
2020/12/15 02:54:32;;;;;;;16.67;9.57;;;-1.00;99.90;;;;;;5071116;28;20386;-47
2020/12/15 02:56:59;;;;;;;14.60;9.05;;;-1.00;99.90;;;;;;5060563;28;20048;-48
2020/12/15 02:59:25;;;;;;;22.98;10.63;;;-1.00;99.90;;;;;;5069328;28;20048;-47
2020/12/15 03:01:52;;;;;;;17.63;10.15;;;-1.00;99.90;;;;;;5056871;28;20047;-48
2020/12/15 03:04:19;;;;;;;15.57;8.90;;;-1.00;99.90;;;;;;5072328;28;20086;-47
2020/12/15 03:06:46;;;;;;;17.55;8.40;;;-1.00;99.90;;;;;;5073896;28;20102;-47
2020/12/15 03:09:12;;;;;;;14.02;7.75;;;-0.90;99.90;;;;;;5070658;28;20378;-47
2020/12/15 03:11:39;;;;;;;15.90;8.93;;;-0.80;99.90;;;;;;5072912;28;20044;-47
2020/12/15 03:14:06;;;;;;;12.88;7.63;;;-0.70;99.90;;;;;;5072212;28;20049;-48
2020/12/15 03:16:33;;;;;;;12.63;7.57;;;-0.60;99.90;;;;;;5070557;28;20532;-48
2020/12/15 03:19:00;;;;;;;14.73;8.43;;;-0.50;99.90;;;;;;5062646;28;20094;-47
2020/12/15 03:21:27;;;;;;;19.73;9.13;;;-0.60;99.90;;;;;;5068829;28;20411;-50
2020/12/15 03:23:57;;;;;;;15.00;6.60;;;-0.60;99.90;;;;;;5060974;28;20053;-48
2020/12/15 03:26:24;;;;;;;8.50;6.50;;;-0.50;99.90;;;;;;5070995;28;20055;-48
2020/12/15 03:28:50;;;;;;;3.45;2.28;;;-0.50;99.90;;;;;;5071946;28;20715;-47
2020/12/15 03:31:17;;;;;;;4.75;3.55;;;-0.50;99.90;;;;;;5071642;28;20044;-47
2020/12/15 03:33:45;;;;;;;4.93;2.00;;;-0.30;99.90;;;;;;5070182;28;20049;-47
2020/12/15 03:36:11;;;;;;;10.15;2.88;;;-0.30;99.90;;;;;;5072745;28;20036;-47
2020/12/15 03:38:38;;;;;;;7.95;2.83;;;-0.30;99.90;;;;;;5070388;28;20405;-47
2020/12/15 03:41:04;;;;;;;12.00;5.82;;;-0.30;99.90;;;;;;5069879;28;20047;-47
2020/12/15 03:43:31;;;;;;;5.47;2.65;;;-0.30;99.90;;;;;;5069113;28;20062;-47
2020/12/15 03:45:57;;;;;;;3.90;2.33;;;-0.20;99.90;;;;;;5062771;28;20045;-48
2020/12/15 03:48:24;;;;;;;5.28;3.10;;;-0.20;99.90;;;;;;5069598;28;20037;-47
2020/12/15 03:50:51;;;;;;;13.40;7.47;;;-0.20;99.90;;;;;;5070720;28;20588;-47
2020/12/15 03:53:17;;;;;;;16.42;8.18;;;-0.40;99.90;;;;;;5073339;28;20040;-47
2020/12/15 03:55:47;;;;;;;11.60;6.82;;;-0.70;99.90;;;;;;5069975;28;20041;-47
2020/12/15 03:58:17;;;;;;;12.25;7.00;;;-0.90;99.90;;;;;;5072495;28;20053;-48
2020/12/15 04:00:44;;;;;;;14.15;7.88;;;-1.00;99.90;;;;;;5072486;28;20049;-47
2020/12/15 04:03:11;;;;;;;13.90;6.88;;;-1.00;99.90;;;;;;5071292;28;20059;-48
2020/12/15 04:05:38;;;;;;;10.93;5.72;;;-1.10;99.90;;;;;;5069139;28;20481;-48
2020/12/15 04:08:05;;;;;;;5.43;1.30;;;-0.90;99.90;;;;;;5061593;28;20482;-47
2020/12/15 04:10:31;;;;;;;6.05;3.15;;;-0.60;99.90;;;;;;5068248;28;20472;-47
2020/12/15 04:12:58;;;;;;;4.80;2.75;;;-0.60;99.90;;;;;;5072044;28;20041;-47
2020/12/15 04:15:24;;;;;;;10.07;5.38;;;-0.50;99.90;;;;;;5069073;28;20580;-47
2020/12/15 04:17:52;;;;;;;19.15;8.68;;;-0.50;99.90;;;;;;5066747;28;20044;-47
2020/12/15 04:20:18;;;;;;;17.58;8.07;;;-0.50;99.90;;;;;;5059645;28;20044;-47
2020/12/15 04:22:45;;;;;;;16.98;8.70;;;-0.50;99.90;;;;;;5066132;28;20382;-47
2020/12/15 04:25:11;;;;;;;13.68;7.88;;;-0.50;99.90;;;;;;5072419;28;20075;-48
2020/12/15 04:27:38;;;;;;;15.02;8.00;;;-0.50;99.90;;;;;;5067311;28;20045;-47
2020/12/15 04:30:06;;;;;;;12.35;7.63;;;-0.60;99.90;;;;;;5062448;28;20045;-47
2020/12/15 04:32:32;;;;;;;8.52;5.70;;;-0.60;99.90;;;;;;5068567;28;20049;-47
2020/12/15 04:34:59;;;;;;;14.73;6.95;;;-0.60;99.90;;;;;;5074764;28;20048;-48
2020/12/15 04:37:25;;;;;;;12.75;5.85;;;-0.60;99.90;;;;;;5068253;28;20401;-48
2020/12/15 04:39:52;;;;;;;10.25;5.88;;;-0.60;99.90;;;;;;5072221;28;20048;-47
2020/12/15 04:42:19;;;;;;;14.70;6.10;;;-0.50;99.90;;;;;;5070216;28;20044;-47
2020/12/15 04:44:47;;;;;;;8.93;3.92;;;-0.50;99.90;;;;;;5069913;28;20049;-47
2020/12/15 04:47:30;;;;;;;4.57;3.80;;;-0.50;99.90;;;;;;5071498;28;20045;-48
2020/12/15 04:50:23;;;;;;;5.90;3.15;;;-0.50;99.90;;;;;;5069492;28;20478;-47
2020/12/15 04:52:57;;;;;;;8.85;5.25;;;-0.30;99.90;;;;;;5056008;28;20052;-48
2020/12/15 04:55:26;;;;;;;20.65;7.90;;;-0.30;99.90;;;;;;5070930;28;20051;-47
2020/12/15 04:57:59;;;;;;;11.77;6.80;;;-0.50;99.90;;;;;;5069490;28;20482;-47
2020/12/15 05:00:27;;;;;;;16.08;6.60;;;-0.60;99.90;;;;;;5071435;28;20048;-47
2020/12/15 05:02:55;;;;;;;3.90;2.17;;;-0.60;99.90;;;;;;5068584;28;20450;-48
2020/12/15 05:05:23;;;;;;;4.47;1.80;;;-0.50;99.90;;;;;;5070243;28;20495;-47
2020/12/15 05:07:50;;;;;;;6.45;2.85;;;-0.40;99.90;;;;;;5066391;28;20040;-47
2020/12/15 05:10:19;;;;;;;3.08;1.05;;;-0.30;99.90;;;;;;5053824;28;20056;-47
2020/12/15 05:12:47;;;;;;;4.43;1.45;;;-0.20;99.90;;;;;;5069005;28;20504;-47
2020/12/15 05:15:18;;;;;;;5.53;1.25;;;-0.20;99.90;;;;;;5064470;28;20059;-47
2020/12/15 05:17:45;;;;;;;3.92;1.80;;;0.00;99.90;;;;;;5061391;28;20088;-47
2020/12/15 05:20:30;;;;;;;6.68;2.30;;;0.00;99.90;;;;;;5064599;28;20052;-47
2020/12/15 05:22:56;;;;;;;7.05;3.47;;;-0.10;99.90;;;;;;5072198;28;20076;-47
2020/12/15 05:25:24;;;;;;;8.13;2.88;;;-0.20;99.90;;;;;;5068926;28;20486;-48
2020/12/15 05:27:50;;;;;;;6.15;1.83;;;-0.20;99.90;;;;;;5061262;28;20051;-47
2020/12/15 05:30:17;;;;;;;3.60;2.22;;;-0.20;99.90;;;;;;5070001;28;20059;-47
2020/12/15 05:32:50;;;;;;;9.00;3.35;;;-0.10;99.90;;;;;;5080954;28;20052;-47
2020/12/15 05:35:23;;;;;;;6.68;3.22;;;-0.20;99.90;;;;;;5067221;28;20048;-48
2020/12/15 05:37:50;;;;;;;;;;;-0.20;99.90;;;;;;5070558;28;20048;-47
2020/12/15 05:40:17;;;;;;;4.25;1.70;;;-0.20;99.90;;;;;;5068141;28;19921;-47
2020/12/15 05:42:54;;;;;;;2.72;1.80;;;-0.10;99.90;;;;;;5068828;28;20067;-47
2020/12/15 05:45:21;;;;;;;2.25;1.00;;;-0.10;99.90;;;;;;5072865;28;20493;-48
2020/12/15 05:47:51;;;;;;;4.18;1.48;;;0.00;99.90;;;;;;5067839;28;20047;-48
2020/12/15 05:50:22;;;;;;;4.55;1.50;;;0.00;99.90;;;;;;5070789;28;20389;-48
2020/12/15 05:52:58;;;;;;;5.82;1.20;;;0.00;99.90;;;;;;5070942;28;20052;-47
2020/12/15 05:55:26;;;;;;;2.97;1.08;;;0.10;99.90;;;;;;5070238;28;20055;-48
2020/12/15 05:57:53;;;;;;;1.55;1.00;;;0.10;99.90;;;;;;5070027;28;20783;-47
2020/12/15 06:00:25;;;;;;;3.13;0.90;;;0.10;99.90;;;;;;5070091;28;20053;-47
2020/12/15 06:03:03;;;;;;;6.07;2.95;;;0.20;99.90;;;;;;5076073;28;20056;-47
2020/12/15 06:05:34;;;;;;;25.10;10.68;;;0.20;99.90;;;;;;5068007;28;20128;-47
2020/12/15 06:08:03;;;;;;;13.13;6.40;;;0.00;99.90;;;;;;5069679;28;20040;-47
2020/12/15 06:10:31;;;;;;;12.82;8.40;;;-0.30;99.90;;;;;;5066711;28;20044;-48
2020/12/15 06:13:00;;;;;;;11.95;6.80;;;-0.40;99.90;;;;;;5064359;28;20056;-47
2020/12/15 06:15:28;;;;;;;3.00;1.25;;;-0.40;99.90;;;;;;5068170;28;20055;-47
2020/12/15 06:17:59;;;;;;;3.40;1.27;;;-0.10;99.90;;;;;;5070021;28;20041;-48
2020/12/15 06:20:33;;;;;;;1.42;1.33;;;0.00;99.90;;;;;;5072375;28;20044;-47
2020/12/15 06:23:01;;;;;;;6.57;4.07;;;0.10;99.90;;;;;;5070470;28;20044;-47
2020/12/15 06:25:30;;;;;;;10.60;5.60;;;0.10;99.90;;;;;;5079108;28;20052;-49
2020/12/15 06:28:05;;;;;;;7.10;4.13;;;-0.10;99.90;;;;;;5070537;28;20417;-49
2020/12/15 06:30:32;;;;;;;9.30;3.88;;;-0.20;99.90;;;;;;5072810;28;20041;-49
2020/12/15 06:33:04;;;;;;;6.45;2.80;;;-0.30;99.90;;;;;;5072763;28;20135;-48
2020/12/15 06:35:32;;;;;;;6.68;3.45;;;-0.30;99.90;;;;;;5065461;28;20044;-49
2020/12/15 06:37:59;;;;;;;4.80;1.83;;;-0.10;99.90;;;;;;5061650;28;20136;-49
2020/12/15 06:40:26;;;;;;;3.08;2.45;;;-0.10;99.90;;;;;;5067294;28;20055;-48
2020/12/15 06:42:54;;;;;;;5.60;1.50;;;0.00;99.90;;;;;;5069242;28;20500;-49
2020/12/15 06:45:23;;;;;;;2.00;0.47;;;0.20;99.90;;;;;;5071231;28;20401;-50
2020/12/15 06:47:57;;;;;;;0.95;0.50;;;0.30;99.90;;;;;;5071988;28;20049;-49
2020/12/15 06:50:24;;;;;;;0.52;0.43;;;0.30;99.90;;;;;;5071097;28;20044;-48
2020/12/15 06:52:52;;;;;;;0.80;0.57;;;0.40;99.90;;;;;;5072012;28;20040;-52
2020/12/15 06:55:30;;;;;;;1.45;0.68;;;0.60;99.90;;;;;;5072914;28;20500;-49
2020/12/15 06:57:59;;;;;;;1.40;1.00;;;0.70;99.90;;;;;;5068781;28;20424;-48
2020/12/15 07:00:33;;;;;;;2.45;1.50;;;0.70;99.90;;;;;;5074194;28;20058;-48
2020/12/15 07:03:01;;;;;;;1.23;1.13;;;0.60;99.90;;;;;;5069410;28;20052;-48
2020/12/15 07:05:28;;;;;;;3.22;0.77;;;0.60;99.90;;;;;;5073790;28;20685;-48
2020/12/15 07:08:00;;;;;;;1.50;0.47;;;0.70;99.90;;;;;;5070353;28;20044;-49
2020/12/15 07:10:28;;;;;;;1.73;0.68;;;1.00;99.90;;;;;;5064520;28;20044;-48
2020/12/15 07:13:02;;;;;;;33.50;12.38;;;1.10;99.90;;;;;;5072905;28;20052;-49
2020/12/15 07:15:29;;;;;;;19.67;10.60;;;1.10;99.90;;;;;;5069203;28;20044;-48
2020/12/15 07:18:00;;;;;;;24.13;11.02;;;1.10;99.90;;;;;;5073417;28;20075;-48
2020/12/15 07:20:27;;;;;;;16.40;6.95;;;1.00;99.90;;;;;;5069714;28;20048;-50
2020/12/15 07:22:54;;;;;;;22.05;9.00;;;0.90;99.90;;;;;;5060125;28;20422;-49
2020/12/15 07:25:21;;;;;;;11.93;5.18;;;0.90;99.90;;;;;;5069863;28;20460;-49
2020/12/15 07:27:48;;;;;;;18.92;9.57;;;0.90;99.90;;;;;;5072903;28;20390;-49
2020/12/15 07:30:20;;;;;;;23.02;11.70;;;1.00;99.90;;;;;;5070734;28;20036;-50
2020/12/15 07:32:48;;;;;;;28.50;13.00;;;0.90;99.90;;;;;;5066304;28;20049;-49
2020/12/15 07:35:21;;;;;;;27.25;12.68;;;0.80;99.90;;;;;;5060484;28;20048;-49
2020/12/15 07:37:49;;;;;;;21.23;11.13;;;0.60;99.90;;;;;;5063494;28;20056;-50
2020/12/15 07:40:18;;;;;;;24.17;13.15;;;0.60;99.90;;;;;;5073169;28;20060;-50
2020/12/15 07:42:55;;;;;;;29.90;11.00;;;0.70;99.90;;;;;;5068835;28;20045;-51
2020/12/15 07:45:24;;;;;;;15.57;7.75;;;0.60;99.90;;;;;;5066449;28;20453;-49
2020/12/15 07:47:52;;;;;;;10.95;5.30;;;0.60;99.90;;;;;;5069731;28;20049;-49
2020/12/15 07:50:26;;;;;;;8.40;4.90;;;0.60;99.90;;;;;;5072764;28;20479;-49
2020/12/15 07:52:54;;;;;;;6.00;3.38;;;0.60;99.90;;;;;;5071121;28;20485;-49
2020/12/15 07:55:22;;;;;;;9.15;2.10;;;0.70;99.90;;;;;;5070886;28;20045;-50
2020/12/15 07:57:49;;;;;;;6.47;3.33;;;0.70;99.90;;;;;;5071499;28;20127;-49
2020/12/15 08:00:19;;;;;;;4.30;2.88;;;0.80;99.90;;;;;;5069487;28;20102;-50
2020/12/15 08:02:50;;;;;;;13.68;6.65;;;0.90;99.90;;;;;;5056519;28;20049;-49
2020/12/15 08:05:18;;;;;;;8.90;3.63;;;0.90;99.90;;;;;;5069009;28;20418;-49
2020/12/15 08:07:54;;;;;;;9.93;7.53;;;1.00;99.90;;;;;;5061189;28;20052;-49
2020/12/15 08:10:35;;;;;;;8.88;5.05;;;1.00;99.90;;;;;;5071120;28;20393;-49
2020/12/15 08:13:04;;;;;;;17.35;10.10;;;1.10;99.90;;;;;;5068773;28;20132;-48
2020/12/15 08:15:39;;;;;;;20.02;10.02;;;1.10;99.90;;;;;;5072891;28;20317;-49
2020/12/15 08:18:12;;;;;;;13.82;5.85;;;1.10;99.90;;;;;;5065890;28;20051;-49
2020/12/15 08:20:42;;;;;;;7.75;5.00;;;1.20;99.90;;;;;;5058536;28;20110;-49
2020/12/15 08:23:13;;;;;;;4.20;2.20;;;1.20;99.90;;;;;;5068601;28;20090;-49
2020/12/15 08:25:45;;;;;;;4.70;1.75;;;1.20;99.90;;;;;;5069799;28;20665;-48
2020/12/15 08:28:13;;;;;;;1.85;1.05;;;1.30;99.90;;;;;;5063642;28;20401;-49
2020/12/15 08:30:41;;;;;;;4.07;1.45;;;1.30;99.90;;;;;;5068998;28;20041;-48
2020/12/15 08:33:08;;;;;;;8.32;4.70;;;1.40;99.90;;;;;;5072692;28;20069;-49
2020/12/15 08:35:34;;;;;;;12.32;7.50;;;1.50;99.90;;;;;;5067425;28;20349;-49
2020/12/15 08:38:03;;;;;;;47.63;25.75;;;1.50;99.90;;;;;;5080722;28;20071;-50
2020/12/15 08:40:31;;;;;;;43.60;23.95;;;1.50;99.90;;;;;;5065516;28;20041;-49
2020/12/15 08:43:00;;;;;;;13.98;8.20;;;1.50;99.90;;;;;;5066695;28;20495;-49
2020/12/15 08:45:28;;;;;;;38.85;20.90;;;1.60;99.90;;;;;;5064606;28;20040;-48
2020/12/15 08:47:56;;;;;;;44.65;26.80;;;1.80;99.90;;;;;;5070084;28;20052;-49
2020/12/15 08:50:32;;;;;;;49.05;28.45;;;1.70;99.90;;;;;;5069287;28;20045;-49
2020/12/15 08:53:15;;;;;;;39.20;22.35;;;1.60;99.90;;;;;;5062765;28;20048;-50
2020/12/15 08:55:44;;;;;;;41.60;22.50;;;1.40;99.90;;;;;;5060453;28;20449;-49
2020/12/15 08:58:11;;;;;;;33.85;18.75;;;1.40;99.90;;;;;;5069071;28;20433;-49
2020/12/15 09:00:43;;;;;;;28.88;17.05;;;1.40;99.90;;;;;;5070886;28;20055;-50
2020/12/15 09:03:17;;;;;;;25.88;13.80;;;1.50;99.90;;;;;;5068006;28;20044;-49
2020/12/15 09:05:53;;;;;;;52.30;28.08;;;1.50;99.90;;;;;;5060089;28;20056;-49
2020/12/15 09:08:21;;;;;;;37.75;21.02;;;1.60;99.90;;;;;;5069040;28;20051;-49
2020/12/15 09:10:50;;;;;;;32.55;16.42;;;1.70;99.90;;;;;;5071146;28;20065;-49
2020/12/15 09:13:17;;;;;;;13.73;7.15;;;1.70;99.90;;;;;;5070026;28;20040;-49
2020/12/15 09:15:55;;;;;;;25.20;10.23;;;1.60;99.90;;;;;;5068824;28;20394;-49
2020/12/15 09:18:33;;;;;;;13.85;8.00;;;1.60;99.90;;;;;;5055790;28;20060;-49
2020/12/15 09:21:13;;;;;;;10.73;6.55;;;1.70;99.90;;;;;;5068437;28;20389;-49
2020/12/15 09:23:43;;;;;;;4.18;2.78;;;1.80;99.90;;;;;;5067982;28;20535;-49
2020/12/15 09:26:10;;;;;;;8.73;4.45;;;1.80;99.90;;;;;;5071797;28;20059;-48
2020/12/15 09:28:37;;;;;;;8.18;5.07;;;2.00;99.90;;;;;;5067382;28;20685;-48
2020/12/15 09:31:04;;;;;;;13.07;9.05;;;2.10;99.90;;;;;;5070180;28;20412;-48
2020/12/15 09:33:31;;;;;;;8.80;6.65;;;2.30;99.90;;;;;;5067465;28;20056;-49
2020/12/15 09:35:58;;;;;;;7.63;5.25;;;2.40;99.90;;;;;;5066421;28;20051;-49
2020/12/15 09:38:25;;;;;;;23.00;13.13;;;2.50;99.90;;;;;;5068745;28;20053;-49
2020/12/15 09:40:51;;;;;;;10.68;5.22;;;2.60;99.90;;;;;;5065271;28;20454;-49
2020/12/15 09:43:18;;;;;;;8.60;4.47;;;2.60;99.90;;;;;;5067944;28;20040;-48
2020/12/15 09:45:52;;;;;;;22.13;13.00;;;2.70;99.90;;;;;;5070332;28;20044;-49
2020/12/15 09:48:19;;;;;;;27.85;16.15;;;2.90;99.90;;;;;;5068431;28;20047;-49
2020/12/15 09:50:46;;;;;;;34.55;16.75;;;2.90;99.90;;;;;;5070075;28;20052;-49
2020/12/15 09:53:13;;;;;;;25.98;17.60;;;2.90;99.90;;;;;;5069532;28;20048;-49
2020/12/15 09:55:40;;;;;;;35.97;19.45;;;2.90;99.90;;;;;;5067129;28;20417;-49
2020/12/15 09:58:07;;;;;;;41.88;20.50;;;3.00;99.90;;;;;;5074914;28;20048;-49
2020/12/15 10:00:36;;;;;;;42.92;22.95;;;3.00;99.90;;;;;;5071675;28;20060;-49
2020/12/15 10:03:08;;;;;;;32.80;19.70;;;3.10;99.90;;;;;;5062210;28;20053;-49
2020/12/15 10:05:50;;;;;;;30.90;18.75;;;3.20;99.90;;;;;;5073482;28;20382;-49
2020/12/15 10:08:17;;;;;;;34.17;20.17;;;3.20;99.90;;;;;;5073895;28;20404;-49
2020/12/15 10:10:44;;;;;;;29.52;17.73;;;3.20;99.90;;;;;;5073504;28;20386;-49
2020/12/15 10:13:11;;;;;;;29.85;18.83;;;3.20;99.90;;;;;;5055661;28;20047;-48
2020/12/15 10:15:40;;;;;;;44.13;23.13;;;3.40;99.90;;;;;;5058578;28;20053;-49
2020/12/15 10:18:09;;;;;;;32.42;18.77;;;3.50;99.90;;;;;;5070181;28;20462;-50
2020/12/15 10:20:48;;;;;;;31.38;17.67;;;3.50;99.90;;;;;;5058361;28;20135;-49
2020/12/15 10:23:18;;;;;;;21.42;12.02;;;3.50;99.90;;;;;;5072571;28;20047;-49
2020/12/15 10:25:45;;;;;;;15.68;8.93;;;3.40;99.90;;;;;;5062685;28;20048;-50
2020/12/15 10:28:12;;;;;;;25.08;12.23;;;3.30;99.90;;;;;;5073149;28;20052;-49
2020/12/15 10:30:41;;;;;;;47.35;20.90;;;3.30;99.90;;;;;;5073870;28;20044;-49
2020/12/15 10:33:09;;;;;;;34.15;15.27;;;3.40;99.90;;;;;;5070171;28;20094;-49
2020/12/15 10:35:35;;;;;;;81.53;36.72;;;3.50;99.90;;;;;;5067933;28;20122;-49
2020/12/15 10:38:05;;;;;;;13.40;6.65;;;3.70;99.90;;;;;;5075332;28;20063;-49
2020/12/15 10:40:35;;;;;;;5.80;5.20;;;3.80;99.90;;;;;;5070639;28;20060;-49
2020/12/15 10:43:03;;;;;;;13.23;12.02;;;3.90;99.90;;;;;;5073824;28;20291;-49
2020/12/15 10:45:30;;;;;;;8.52;7.53;;;3.90;99.90;;;;;;5070172;28;20053;-49
2020/12/15 10:47:56;;;;;;;10.27;5.00;;;4.00;99.90;;;;;;5072371;28;20044;-48
2020/12/15 10:50:23;;;;;;;14.77;7.07;;;4.10;99.90;;;;;;5073737;28;20049;-50
2020/12/15 10:52:50;;;;;;;11.00;6.82;;;4.20;99.90;;;;;;5072318;28;20385;-50
2020/12/15 10:55:17;;;;;;;12.55;4.50;;;4.20;99.90;;;;;;5073378;28;20048;-49
2020/12/15 10:57:44;;;;;;;8.57;4.40;;;4.30;99.90;;;;;;5067360;28;20040;-49
2020/12/15 11:00:10;;;;;;;15.73;1.30;;;4.40;99.90;;;;;;5073618;28;20049;-49
2020/12/15 11:02:40;;;;;;;1.85;0.90;;;4.50;99.90;;;;;;5068376;28;20041;-49
2020/12/15 11:05:07;;;;;;;2.45;1.00;;;4.60;99.90;;;;;;5072641;28;20040;-49
2020/12/15 11:07:33;;;;;;;2.80;1.00;;;4.70;99.90;;;;;;5071996;28;20051;-49
2020/12/15 11:10:00;;;;;;;10.10;4.65;;;4.90;99.90;;;;;;5070072;28;20052;-49
2020/12/15 11:12:27;;;;;;;9.95;4.25;;;5.20;99.90;;;;;;5065254;28;20045;-51
2020/12/15 11:14:54;;;;;;;5.80;2.92;;;5.50;99.90;;;;;;5068266;28;20044;-49
2020/12/15 11:17:21;;;;;;;7.57;4.03;;;5.60;99.90;;;;;;5071964;28;20051;-50
2020/12/15 11:19:48;;;;;;;5.40;3.42;;;5.60;99.90;;;;;;5073543;28;20063;-49
2020/12/15 11:22:16;;;;;;;2.30;1.67;;;5.70;99.90;;;;;;5071211;28;20048;-49
2020/12/15 11:24:43;;;;;;;8.88;1.80;;;5.80;99.90;;;;;;5069778;28;20062;-51
2020/12/15 11:27:09;;;;;;;2.10;1.00;;;6.10;99.90;;;;;;5074234;28;20052;-50
2020/12/15 11:29:36;;;;;;;3.40;1.17;;;6.50;99.90;;;;;;5067654;28;20056;-49
2020/12/15 11:32:03;;;;;;;1.52;0.95;;;6.80;99.90;;;;;;5066775;28;20044;-49
2020/12/15 11:34:29;;;;;;;1.75;0.80;;;7.00;99.90;;;;;;5070238;28;20040;-49
2020/12/15 11:36:57;;;;;;;8.50;0.90;;;7.10;99.90;;;;;;5069241;28;20401;-49
2020/12/15 11:39:24;;;;;;;1.40;0.70;;;7.20;99.90;;;;;;5070055;28;20065;-49
2020/12/15 11:41:51;;;;;;;0.47;0.20;;;7.20;99.90;;;;;;5068543;28;20063;-49
2020/12/15 11:44:18;;;;;;;0.30;0.25;;;7.20;99.90;;;;;;5067261;28;20053;-50
2020/12/15 11:46:57;;;;;;;2.92;0.80;;;7.20;99.90;;;;;;5066858;28;20044;-49
2020/12/15 11:49:24;;;;;;;19.98;2.17;;;7.40;99.90;;;;;;5073673;28;20117;-49
2020/12/15 11:51:54;;;;;;;6.68;0.90;;;7.50;99.90;;;;;;5071638;28;20041;-49
2020/12/15 11:54:22;;;;;;;3.10;1.77;;;7.50;99.90;;;;;;5038354;28;20040;-49
2020/12/15 11:56:52;;;;;;;11.43;5.97;;;7.50;99.90;;;;;;5068481;28;20405;-49
2020/12/15 11:59:20;;;;;;;27.13;10.95;;;7.50;99.90;;;;;;5073795;28;20538;-49
2020/12/15 12:01:47;;;;;;;19.73;9.00;;;7.40;99.90;;;;;;5070863;28;20060;-49
2020/12/15 12:04:13;;;;;;;11.82;4.47;;;7.40;99.90;;;;;;5064905;28;20041;-49
2020/12/15 12:06:39;;;;;;;13.38;6.13;;;7.40;99.90;;;;;;5071705;28;20067;-49
2020/12/15 12:09:06;;;;;;;9.93;5.25;;;7.50;99.90;;;;;;5070553;28;20126;-49
2020/12/15 12:11:33;;;;;;;9.68;5.68;;;7.60;99.90;;;;;;5073747;28;20052;-50
2020/12/15 12:13:59;;;;;;;124.18;66.25;;;7.50;99.90;;;;;;5069113;28;20046;-50
2020/12/15 12:16:27;;;;;;;13.88;7.78;;;7.60;99.90;;;;;;5071872;28;20052;-50
2020/12/15 12:18:53;;;;;;;8.55;3.33;;;7.60;99.90;;;;;;5068677;28;20087;-49
2020/12/15 12:21:20;;;;;;;2.42;1.45;;;7.70;99.90;;;;;;5071466;28;20071;-49
2020/12/15 12:23:46;;;;;;;6.90;3.22;;;7.70;99.90;;;;;;5071542;28;20056;-49
2020/12/15 12:26:16;;;;;;;8.18;4.68;;;7.70;99.90;;;;;;5067382;28;20048;-49
2020/12/15 12:28:42;;;;;;;14.35;8.13;;;7.70;99.90;;;;;;5063734;28;20061;-50
2020/12/15 12:31:12;;;;;;;12.77;7.65;;;7.70;99.90;;;;;;5063188;28;20041;-49
2020/12/15 12:33:39;;;;;;;15.95;7.90;;;7.70;99.90;;;;;;5070523;28;20055;-49
2020/12/15 12:36:06;;;;;;;18.02;11.45;;;7.70;99.90;;;;;;5069307;28;20048;-49
2020/12/15 12:38:32;;;;;;;22.20;13.63;;;7.80;99.90;;;;;;5071672;28;20060;-51
2020/12/15 12:40:59;;;;;;;18.65;11.85;;;7.80;99.90;;;;;;5065642;28;20057;-50
2020/12/15 12:43:26;;;;;;;11.32;3.63;;;7.90;99.90;;;;;;5071438;28;20058;-51
2020/12/15 12:45:52;;;;;;;24.67;13.93;;;8.00;99.90;;;;;;5067227;28;20059;-49
2020/12/15 12:48:20;;;;;;;55.17;29.35;;;8.10;99.90;;;;;;5073780;28;20093;-50